createdAt,value
2022-12-04T00:01:29.885Z,100726.50
2022-12-04T00:03:59.700Z,100721.81
2022-12-04T00:06:29.777Z,100722.88
2022-12-04T00:08:58.399Z,100719.91
2022-12-04T00:11:29.164Z,100727.41
2022-12-04T00:14:04.641Z,100725.34
2022-12-04T00:16:34.796Z,100725.50
2022-12-04T00:19:02.961Z,100727.00
2022-12-04T00:21:32.594Z,100722.88
2022-12-04T00:24:00.955Z,100731.09
2022-12-04T00:26:31.171Z,100733.72
2022-12-04T00:28:59.520Z,100725.72
2022-12-04T00:31:29.764Z,100730.56
2022-12-04T00:33:58.739Z,100728.13
2022-12-04T00:36:28.555Z,100720.72
2022-12-04T00:39:00.601Z,100723.69
2022-12-04T00:41:30.372Z,100720.28
2022-12-04T00:43:58.550Z,100725.91
2022-12-04T00:46:27.298Z,100734.19
2022-12-04T00:48:55.951Z,100721.31
2022-12-04T00:51:25.754Z,100724.28
2022-12-04T00:53:54.853Z,100728.06
2022-12-04T00:56:27.170Z,100723.19
2022-12-04T00:58:56.491Z,100720.84
2022-12-04T01:01:25.945Z,100721.66
2022-12-04T01:03:55.750Z,100724.44
2022-12-04T01:06:25.854Z,100712.56
2022-12-04T01:08:55.527Z,100717.69
2022-12-04T01:11:27.268Z,100707.03
2022-12-04T01:13:55.647Z,100715.81
2022-12-04T01:16:25.951Z,100717.59
2022-12-04T01:18:54.500Z,100719.31
2022-12-04T01:21:23.037Z,100723.41
2022-12-04T01:23:51.376Z,100722.81
2022-12-04T01:26:19.580Z,100727.09
2022-12-04T01:28:49.064Z,100726.97
2022-12-04T01:31:19.120Z,100728.00
2022-12-04T01:33:47.880Z,100728.03
2022-12-04T01:36:18.277Z,100723.69
2022-12-04T01:38:46.448Z,100730.75
2022-12-04T01:41:15.995Z,100732.81
2022-12-04T01:43:44.194Z,100736.66
2022-12-04T01:46:13.829Z,100734.91
2022-12-04T01:48:47.559Z,100731.63
2022-12-04T01:51:19.731Z,100736.44
2022-12-04T01:53:52.294Z,100728.34
2022-12-04T01:56:21.897Z,100727.50
2022-12-04T01:58:53.768Z,100729.72
2022-12-04T02:01:23.166Z,100721.09
2022-12-04T02:03:51.662Z,100718.06
2022-12-04T02:06:19.728Z,100724.09
2022-12-04T02:08:48.207Z,100716.53
2022-12-04T02:11:28.203Z,100716.53
2022-12-04T02:14:07.348Z,100709.97
2022-12-04T02:16:44.269Z,100711.38
2022-12-04T02:19:34.274Z,100714.16
2022-12-04T02:22:10.745Z,100712.59
2022-12-04T02:24:50.386Z,100717.97
2022-12-04T02:27:33.991Z,100722.25
2022-12-04T02:30:06.907Z,100711.06
2022-12-04T02:32:40.871Z,100712.41
2022-12-04T02:35:16.339Z,100719.88
2022-12-04T02:37:47.096Z,100716.84
2022-12-04T02:40:22.419Z,100717.09
2022-12-04T02:42:55.456Z,100715.38
2022-12-04T02:45:28.517Z,100720.41
2022-12-04T02:47:58.248Z,100723.75
2022-12-04T02:50:28.207Z,100715.44
2022-12-04T02:53:02.766Z,100713.84
2022-12-04T02:55:36.859Z,100711.88
2022-12-04T02:58:10.439Z,100711.31
2022-12-04T03:00:45.070Z,100717.78
2022-12-04T03:03:19.573Z,100729.72
2022-12-04T03:05:55.410Z,100722.72
2022-12-04T03:08:29.860Z,100717.69
2022-12-04T03:11:01.568Z,100718.97
2022-12-04T03:13:35.303Z,100712.97
2022-12-04T03:16:09.683Z,100713.41
2022-12-04T03:18:41.061Z,100709.66
2022-12-04T03:21:13.427Z,100707.81
2022-12-04T03:23:47.469Z,100709.00
2022-12-04T03:26:23.874Z,100707.53
2022-12-04T03:28:57.245Z,100710.88
2022-12-04T03:31:33.480Z,100714.81
2022-12-04T03:34:04.295Z,100712.91
2022-12-04T03:36:37.596Z,100710.38
2022-12-04T03:39:13.550Z,100712.56
2022-12-04T03:41:55.397Z,100715.91
2022-12-04T03:44:27.902Z,100712.81
2022-12-04T03:47:04.653Z,100715.53
2022-12-04T03:49:41.887Z,100711.53
2022-12-04T03:52:15.616Z,100709.34
2022-12-04T03:54:48.749Z,100722.97
2022-12-04T03:57:20.345Z,100715.19
2022-12-04T03:59:55.844Z,100712.47
2022-12-04T04:02:30.067Z,100712.59
2022-12-04T04:05:01.331Z,100705.56
2022-12-04T04:07:36.122Z,100717.78
2022-12-04T04:10:09.126Z,100714.56
2022-12-04T04:12:41.917Z,100724.09
2022-12-04T04:15:30.743Z,100717.50
2022-12-04T04:18:20.018Z,100705.56
2022-12-04T04:21:11.574Z,100719.09
2022-12-04T04:24:02.175Z,100715.66
2022-12-04T04:26:36.657Z,100718.28
2022-12-04T04:29:04.805Z,100718.38
2022-12-04T04:31:39.425Z,100719.38
2022-12-04T04:34:18.650Z,100724.63
2022-12-04T04:36:55.572Z,100726.81
2022-12-04T04:39:32.084Z,100735.03
2022-12-04T04:42:08.150Z,100731.69
2022-12-04T04:44:45.177Z,100734.31
2022-12-04T04:47:19.789Z,100732.13
2022-12-04T04:49:53.143Z,100733.25
2022-12-04T04:52:23.859Z,100726.81
2022-12-04T04:54:51.897Z,100731.53
2022-12-04T04:57:48.087Z,100738.66
2022-12-04T05:00:19.491Z,100745.34
2022-12-04T05:02:48.848Z,100743.09
2022-12-04T05:05:18.587Z,100746.88
2022-12-04T05:07:46.738Z,100747.00
2022-12-04T05:10:15.140Z,100750.44
2022-12-04T05:12:45.043Z,100749.06
2022-12-04T05:15:13.260Z,100756.34
2022-12-04T05:17:41.441Z,100757.13
2022-12-04T05:20:11.441Z,100760.47
2022-12-04T05:22:40.883Z,100753.50
2022-12-04T05:25:09.686Z,100757.56
2022-12-04T05:27:37.804Z,100757.38
2022-12-04T05:30:08.016Z,100764.06
2022-12-04T05:32:36.299Z,100760.97
2022-12-04T05:35:10.621Z,100763.63
2022-12-04T05:37:42.174Z,100768.31
2022-12-04T05:40:11.233Z,100767.16
2022-12-04T05:42:39.341Z,100772.41
2022-12-04T05:45:08.229Z,100773.84
2022-12-04T05:47:39.792Z,100773.69
2022-12-04T05:50:10.346Z,100766.94
2022-12-04T05:52:38.447Z,100777.81
2022-12-04T05:55:08.456Z,100775.13
2022-12-04T05:57:36.550Z,100770.44
2022-12-04T06:00:06.246Z,100773.31
2022-12-04T06:02:35.704Z,100774.38
2022-12-04T06:05:04.057Z,100780.53
2022-12-04T06:07:32.214Z,100783.69
2022-12-04T06:10:00.418Z,100779.97
2022-12-04T06:12:31.009Z,100777.34
2022-12-04T06:14:59.078Z,100783.38
2022-12-04T06:17:27.240Z,100779.41
2022-12-04T06:19:56.285Z,100785.41
2022-12-04T06:22:24.621Z,100789.16
2022-12-04T06:24:52.711Z,100799.72
2022-12-04T06:27:28.633Z,100795.97
2022-12-04T06:29:58.956Z,100804.03
2022-12-04T06:32:27.499Z,100805.41
2022-12-04T06:34:56.687Z,100809.44
2022-12-04T06:37:26.645Z,100804.84
2022-12-04T06:39:55.237Z,100804.00
2022-12-04T06:42:23.646Z,100801.88
2022-12-04T06:44:51.847Z,100809.50
2022-12-04T06:47:21.429Z,100807.94
2022-12-04T06:49:51.617Z,100804.41
2022-12-04T06:52:19.843Z,100802.00
2022-12-04T06:54:48.131Z,100802.22
2022-12-04T06:57:16.479Z,100799.88
2022-12-04T06:59:44.580Z,100807.03
2022-12-04T07:02:12.829Z,100804.09
2022-12-04T07:04:42.620Z,100808.41
2022-12-04T07:07:11.113Z,100810.22
2022-12-04T07:09:39.431Z,100798.88
2022-12-04T07:12:08.245Z,100807.69
2022-12-04T07:14:36.383Z,100809.91
2022-12-04T07:17:04.676Z,100808.72
2022-12-04T07:19:32.799Z,100804.50
2022-12-04T07:22:02.265Z,100816.13
2022-12-04T07:24:30.419Z,100821.06
2022-12-04T07:26:58.558Z,100820.25
2022-12-04T07:29:26.680Z,100818.44
2022-12-04T07:31:54.905Z,100815.03
2022-12-04T07:34:23.504Z,100820.78
2022-12-04T07:36:51.685Z,100817.63
2022-12-04T07:39:21.253Z,100818.59
2022-12-04T07:41:49.445Z,100821.88
2022-12-04T07:44:17.986Z,100817.66
2022-12-04T07:46:46.126Z,100816.59
2022-12-04T07:49:14.574Z,100828.56
2022-12-04T07:51:42.999Z,100822.38
2022-12-04T07:54:11.180Z,100824.50
2022-12-04T07:56:40.746Z,100814.69
2022-12-04T07:59:08.898Z,100811.13
2022-12-04T08:01:37.077Z,100820.09
2022-12-04T08:04:05.499Z,100819.69
2022-12-04T08:06:35.438Z,100818.91
2022-12-04T08:09:09.566Z,100822.72
2022-12-04T08:11:38.822Z,100833.59
2022-12-04T08:14:09.855Z,100827.69
2022-12-04T08:16:38.103Z,100821.56
2022-12-04T08:19:06.541Z,100823.47
2022-12-04T08:21:34.876Z,100827.53
2022-12-04T08:24:03.135Z,100826.53
2022-12-04T08:26:33.830Z,100829.31
2022-12-04T08:29:02.833Z,100820.81
2022-12-04T08:31:34.676Z,100828.09
2022-12-04T08:34:05.326Z,100822.84
2022-12-04T08:36:34.313Z,100821.25
2022-12-04T08:39:02.452Z,100807.69
2022-12-04T08:41:30.680Z,100829.31
2022-12-04T08:44:00.582Z,100822.31
2022-12-04T08:46:29.909Z,100829.44
2022-12-04T08:48:59.824Z,100827.97
2022-12-04T08:51:29.852Z,100826.75
2022-12-04T08:54:01.373Z,100822.47
2022-12-04T08:56:31.977Z,100819.50
2022-12-04T08:59:01.004Z,100818.13
2022-12-04T09:01:30.753Z,100814.34
2022-12-04T09:04:00.447Z,100818.78
2022-12-04T09:06:29.873Z,100813.75
2022-12-04T09:08:59.008Z,100818.25
2022-12-04T09:11:30.001Z,100815.81
2022-12-04T09:13:58.257Z,100804.63
2022-12-04T09:16:28.431Z,100795.91
2022-12-04T09:19:00.837Z,100804.31
2022-12-04T09:21:30.497Z,100806.22
2022-12-04T09:24:00.242Z,100800.94
2022-12-04T09:26:32.772Z,100796.38
2022-12-04T09:29:03.093Z,100799.53
2022-12-04T09:31:31.448Z,100789.78
2022-12-04T09:34:00.063Z,100781.19
2022-12-04T09:36:28.875Z,100787.53
2022-12-04T09:38:59.601Z,100777.13
2022-12-04T09:41:56.487Z,100778.72
2022-12-04T09:44:29.209Z,100776.91
2022-12-04T09:47:03.102Z,100776.94
2022-12-04T09:49:38.629Z,100772.69
2022-12-04T09:52:20.318Z,100772.69
2022-12-04T09:54:53.388Z,100774.84
2022-12-04T09:57:31.309Z,100768.41
2022-12-04T10:00:00.402Z,100767.84
2022-12-04T10:02:36.844Z,100772.06
2022-12-04T10:05:06.178Z,100767.25
2022-12-04T10:07:42.505Z,100760.97
2022-12-04T10:10:23.414Z,100767.78
2022-12-04T10:13:11.697Z,100766.88
2022-12-04T10:15:48.431Z,100763.28
2022-12-04T10:18:29.512Z,100755.78
2022-12-04T10:21:25.107Z,100758.34
2022-12-04T10:24:09.374Z,100755.53
2022-12-04T10:26:45.256Z,100750.47
2022-12-04T10:29:21.592Z,100748.09
2022-12-04T10:31:53.331Z,100754.84
2022-12-04T10:34:25.026Z,100751.28
2022-12-04T10:36:55.585Z,100740.38
2022-12-04T10:39:28.458Z,100731.88
2022-12-04T10:42:03.088Z,100742.53
2022-12-04T10:44:31.264Z,100744.28
2022-12-04T10:47:01.823Z,100737.00
2022-12-04T10:49:31.878Z,100737.97
2022-12-04T10:52:00.145Z,100730.19
2022-12-04T10:54:33.697Z,100729.66
2022-12-04T10:57:05.838Z,100715.00
2022-12-04T10:59:34.782Z,100721.38
2022-12-04T11:02:07.483Z,100711.91
2022-12-04T11:04:37.015Z,100710.72
2022-12-04T11:07:07.784Z,100703.59
2022-12-04T11:09:37.025Z,100694.28
2022-12-04T11:12:18.106Z,100708.25
2022-12-04T11:14:47.489Z,100697.84
2022-12-04T11:17:20.094Z,100696.38
2022-12-04T11:19:48.380Z,100688.75
2022-12-04T11:22:19.107Z,100693.41
2022-12-04T11:24:54.192Z,100696.53
2022-12-04T11:27:28.015Z,100688.53
2022-12-04T11:29:57.883Z,100687.66
2022-12-04T11:32:29.896Z,100684.91
2022-12-04T11:35:02.497Z,100694.34
2022-12-04T11:37:34.779Z,100684.44
2022-12-04T11:40:06.469Z,100674.84
2022-12-04T11:42:35.960Z,100677.41
2022-12-04T11:45:21.031Z,100671.00
2022-12-04T11:47:55.718Z,100682.16
2022-12-04T11:50:32.072Z,100682.16
2022-12-04T11:53:11.636Z,100678.84
2022-12-04T11:55:50.107Z,100693.03
2022-12-04T11:58:41.033Z,100682.06
2022-12-04T12:01:22.179Z,100685.09
2022-12-04T12:04:04.382Z,100679.72
2022-12-04T12:06:36.054Z,100680.81
2022-12-04T12:09:18.866Z,100684.03
2022-12-04T12:11:53.601Z,100676.47
2022-12-04T12:14:31.184Z,100677.03
2022-12-04T12:17:11.369Z,100669.03
2022-12-04T12:20:04.232Z,100676.72
2022-12-04T12:22:54.117Z,100665.53
2022-12-04T12:25:28.299Z,100660.22
2022-12-04T12:28:12.747Z,100660.75
2022-12-04T12:30:55.468Z,100661.19
2022-12-04T12:33:28.587Z,100663.25
2022-12-04T12:36:02.607Z,100660.34
2022-12-04T12:38:39.329Z,100654.94
2022-12-04T12:41:14.394Z,100659.44
2022-12-04T12:43:46.345Z,100668.75
2022-12-04T12:46:19.365Z,100668.22
2022-12-04T12:48:58.189Z,100660.53
2022-12-04T12:51:35.689Z,100660.47
2022-12-04T12:54:15.385Z,100665.41
2022-12-04T12:56:50.682Z,100660.22
2022-12-04T12:59:22.417Z,100663.31
2022-12-04T13:02:00.915Z,100660.47
2022-12-04T13:04:35.527Z,100663.50
2022-12-04T13:07:16.344Z,100671.44
2022-12-04T13:09:52.894Z,100679.81
2022-12-04T13:12:24.211Z,100678.28
2022-12-04T13:14:52.324Z,100675.84
2022-12-04T13:17:29.919Z,100671.38
2022-12-04T13:20:05.316Z,100671.91
2022-12-04T13:22:45.959Z,100672.75
2022-12-04T13:25:37.926Z,100675.16
2022-12-04T13:28:18.495Z,100683.63
2022-12-04T13:30:53.326Z,100688.47
2022-12-04T13:33:59.849Z,100696.53
2022-12-04T13:36:55.654Z,100694.78
2022-12-04T13:39:50.145Z,100702.94
2022-12-04T13:42:27.342Z,100702.88
2022-12-04T13:44:59.010Z,100697.97
2022-12-04T13:47:29.518Z,100702.94
2022-12-04T13:50:23.216Z,100702.75
2022-12-04T13:52:53.744Z,100708.34
2022-12-04T13:55:27.699Z,100695.97
2022-12-04T13:57:57.470Z,100699.94
2022-12-04T14:00:30.662Z,100706.28
2022-12-04T14:03:03.299Z,100707.56
2022-12-04T14:05:40.421Z,100708.91
2022-12-04T14:08:25.696Z,100704.16
2022-12-04T14:11:03.675Z,100709.34
2022-12-04T14:13:43.684Z,100706.84
2022-12-04T14:16:21.067Z,100698.91
2022-12-04T14:18:50.909Z,100705.78
2022-12-04T14:21:19.323Z,100702.16
2022-12-04T14:23:49.507Z,100698.09
2022-12-04T14:26:29.297Z,100698.69
2022-12-04T14:29:30.192Z,100687.22
2022-12-04T14:32:01.870Z,100688.13
2022-12-04T14:34:32.012Z,100690.94
2022-12-04T14:37:02.314Z,100697.69
2022-12-04T14:39:35.764Z,100702.44
2022-12-04T14:42:13.913Z,100703.19
2022-12-04T14:44:42.738Z,100705.00
2022-12-04T14:47:21.696Z,100706.13
2022-12-04T14:50:07.005Z,100708.75
2022-12-04T14:52:42.163Z,100709.13
2022-12-04T14:55:23.821Z,100708.03
2022-12-04T14:57:56.740Z,100704.66
2022-12-04T15:00:26.028Z,100703.22
2022-12-04T15:02:57.713Z,100697.19
2022-12-04T15:05:28.914Z,100694.13
2022-12-04T15:08:01.307Z,100689.84
2022-12-04T15:10:50.053Z,100702.72
2022-12-04T15:13:26.952Z,100703.22
2022-12-04T15:15:55.545Z,100698.44
2022-12-04T15:18:23.731Z,100705.41
2022-12-04T15:20:59.735Z,100699.44
2022-12-04T15:23:32.333Z,100702.44
2022-12-04T15:26:03.519Z,100702.44
2022-12-04T15:28:35.549Z,100697.88
2022-12-04T15:31:07.874Z,100699.28
2022-12-04T15:33:39.738Z,100693.38
2022-12-04T15:36:13.394Z,100702.25
2022-12-04T15:38:42.027Z,100693.53
2022-12-04T15:41:30.711Z,100694.13
2022-12-04T15:43:59.020Z,100691.31
2022-12-04T15:46:33.829Z,100700.63
2022-12-04T15:49:16.957Z,100702.78
2022-12-04T15:51:46.846Z,100709.22
2022-12-04T15:54:21.082Z,100698.91
2022-12-04T15:57:01.175Z,100704.81
2022-12-04T15:59:31.012Z,100707.94
2022-12-04T16:02:05.485Z,100714.41
2022-12-04T16:04:35.665Z,100715.44
2022-12-04T16:07:03.959Z,100714.41
2022-12-04T16:09:32.607Z,100718.72
2022-12-04T16:12:05.034Z,100716.69
2022-12-04T16:14:33.197Z,100715.59
2022-12-04T16:17:06.245Z,100715.09
2022-12-04T16:19:37.120Z,100714.72
2022-12-04T16:22:13.365Z,100718.94
2022-12-04T16:24:42.008Z,100720.91
2022-12-04T16:27:14.682Z,100723.94
2022-12-04T16:29:43.266Z,100722.31
2022-12-04T16:32:13.272Z,100723.09
2022-12-04T16:34:41.892Z,100722.13
2022-12-04T16:37:13.971Z,100727.88
2022-12-04T16:39:42.413Z,100729.13
2022-12-04T16:42:17.281Z,100733.72
2022-12-04T16:44:46.232Z,100743.28
2022-12-04T16:47:15.350Z,100730.88
2022-12-04T16:49:44.687Z,100735.69
2022-12-04T16:52:13.716Z,100743.81
2022-12-04T16:54:42.258Z,100739.09
2022-12-04T16:57:11.538Z,100736.81
2022-12-04T16:59:41.699Z,100734.28
2022-12-04T17:02:16.880Z,100733.69
2022-12-04T17:04:44.991Z,100739.94
2022-12-04T17:07:13.025Z,100738.44
2022-12-04T17:09:41.929Z,100736.31
2022-12-04T17:12:10.199Z,100744.63
2022-12-04T17:14:39.121Z,100741.19
2022-12-04T17:17:08.633Z,100746.34
2022-12-04T17:19:36.739Z,100753.78
2022-12-04T17:22:04.838Z,100753.19
2022-12-04T17:24:33.096Z,100756.44
2022-12-04T17:27:01.430Z,100755.44
2022-12-04T17:29:29.580Z,100751.66
2022-12-04T17:31:57.752Z,100753.97
2022-12-04T17:34:27.334Z,100755.06
2022-12-04T17:36:56.407Z,100758.50
2022-12-04T17:39:24.833Z,100755.53
2022-12-04T17:41:52.923Z,100753.47
2022-12-04T17:44:21.153Z,100749.25
2022-12-04T17:46:49.384Z,100742.63
2022-12-04T17:49:17.616Z,100743.38
2022-12-04T17:51:47.258Z,100743.06
2022-12-04T17:54:15.430Z,100747.59
2022-12-04T17:56:48.218Z,100743.47
2022-12-04T17:59:18.696Z,100747.59
2022-12-04T18:01:46.844Z,100744.78
2022-12-04T18:04:14.910Z,100756.06
2022-12-04T18:06:44.954Z,100747.97
2022-12-04T18:09:17.184Z,100751.06
2022-12-04T18:11:47.087Z,100741.81
2022-12-04T18:14:17.741Z,100756.66
2022-12-04T18:16:48.063Z,100755.06
2022-12-04T18:19:16.354Z,100755.94
2022-12-04T18:21:44.359Z,100755.91
2022-12-04T18:24:12.570Z,100753.44
2022-12-04T18:26:44.244Z,100757.28
2022-12-04T18:29:14.513Z,100748.91
2022-12-04T18:31:43.388Z,100755.22
2022-12-04T18:34:12.106Z,100750.81
2022-12-04T18:36:42.168Z,100746.72
2022-12-04T18:39:13.582Z,100756.97
2022-12-04T18:41:43.949Z,100749.28
2022-12-04T18:44:12.406Z,100755.53
2022-12-04T18:46:40.790Z,100756.25
2022-12-04T18:49:09.741Z,100759.00
2022-12-04T18:51:39.861Z,100765.19
2022-12-04T18:54:11.377Z,100761.25
2022-12-04T18:56:40.151Z,100752.38
2022-12-04T18:59:13.038Z,100751.75
2022-12-04T19:01:41.864Z,100764.28
2022-12-04T19:04:12.681Z,100765.00
2022-12-04T19:06:42.605Z,100761.09
2022-12-04T19:09:13.154Z,100757.28
2022-12-04T19:11:43.069Z,100763.00
2022-12-04T19:14:22.458Z,100761.69
2022-12-04T19:16:51.942Z,100759.72
2022-12-04T19:19:20.258Z,100754.66
2022-12-04T19:21:48.328Z,100755.44
2022-12-04T19:24:16.470Z,100748.38
2022-12-04T19:26:47.726Z,100746.75
2022-12-04T19:29:17.299Z,100739.25
2022-12-04T19:31:45.446Z,100731.19
2022-12-04T19:34:13.745Z,100737.38
2022-12-04T19:36:42.754Z,100725.81
2022-12-04T19:39:11.440Z,100736.56
2022-12-04T19:41:41.521Z,100734.69
2022-12-04T19:44:39.926Z,100735.94
2022-12-04T19:47:01.841Z,100729.19
2022-12-04T19:49:30.102Z,100734.56
2022-12-04T19:51:58.299Z,100732.22
2022-12-04T19:54:26.454Z,100734.03
2022-12-04T19:56:54.598Z,100746.56
2022-12-04T19:59:22.835Z,100752.75
2022-12-04T20:01:51.319Z,100750.44
2022-12-04T20:04:21.559Z,100755.72
2022-12-04T20:06:49.615Z,100758.34
2022-12-04T20:09:21.233Z,100763.47
2022-12-04T20:11:49.648Z,100763.56
2022-12-04T20:14:18.932Z,100771.59
2022-12-04T20:16:47.693Z,100768.78
2022-12-04T20:19:18.010Z,100762.03
2022-12-04T20:21:48.194Z,100763.69
2022-12-04T20:24:18.419Z,100758.34
2022-12-04T20:26:47.210Z,100764.94
2022-12-04T20:29:19.597Z,100765.44
2022-12-04T20:31:48.053Z,100767.63
2022-12-04T20:34:18.565Z,100763.16
2022-12-04T20:36:49.939Z,100767.75
2022-12-04T20:39:19.645Z,100759.41
2022-12-04T20:41:48.131Z,100760.34
2022-12-04T20:44:18.731Z,100767.03
2022-12-04T20:46:47.359Z,100762.66
2022-12-04T20:49:21.778Z,100767.25
2022-12-04T20:51:53.010Z,100765.88
2022-12-04T20:54:23.275Z,100755.09
2022-12-04T20:56:53.362Z,100762.66
2022-12-04T20:59:23.422Z,100765.00
2022-12-04T21:01:52.830Z,100757.22
2022-12-04T21:04:21.555Z,100759.59
2022-12-04T21:06:52.353Z,100757.22
2022-12-04T21:09:24.104Z,100759.03
2022-12-04T21:11:54.334Z,100754.38
2022-12-04T21:14:44.513Z,100748.78
2022-12-04T21:17:16.895Z,100748.69
2022-12-04T21:19:45.529Z,100749.91
2022-12-04T21:22:15.343Z,100748.81
2022-12-04T21:24:43.836Z,100747.94
2022-12-04T21:27:17.149Z,100750.84
2022-12-04T21:29:47.212Z,100752.19
2022-12-04T21:32:15.402Z,100760.75
2022-12-04T21:34:43.730Z,100753.84
2022-12-04T21:37:11.873Z,100745.19
2022-12-04T21:39:42.053Z,100736.09
2022-12-04T21:42:27.859Z,100735.06
2022-12-04T21:44:55.908Z,100731.00
2022-12-04T21:47:24.368Z,100736.09
2022-12-04T21:49:52.768Z,100732.91
2022-12-04T21:52:20.942Z,100740.97
2022-12-04T21:54:52.099Z,100748.69
2022-12-04T21:57:21.541Z,100747.47
2022-12-04T21:59:51.544Z,100747.31
2022-12-04T22:02:19.935Z,100752.53
2022-12-04T22:04:48.317Z,100754.66
2022-12-04T22:07:16.509Z,100752.38
2022-12-04T22:09:44.782Z,100756.53
2022-12-04T22:12:41.256Z,100750.50
2022-12-04T22:15:02.244Z,100753.31
2022-12-04T22:17:31.010Z,100746.88
2022-12-04T22:19:59.427Z,100739.09
2022-12-04T22:22:27.777Z,100748.03
2022-12-04T22:24:56.141Z,100745.50
2022-12-04T22:27:26.141Z,100751.06
2022-12-04T22:29:54.460Z,100749.69
2022-12-04T22:32:23.132Z,100750.03
2022-12-04T22:34:51.564Z,100756.53
2022-12-04T22:37:19.730Z,100751.75
2022-12-04T22:39:47.821Z,100760.78
2022-12-04T22:42:16.066Z,100759.69
2022-12-04T22:44:45.660Z,100755.47
2022-12-04T22:47:13.769Z,100757.06
2022-12-04T22:49:42.741Z,100753.06
2022-12-04T22:52:10.842Z,100740.91
2022-12-04T22:54:39.017Z,100748.91
2022-12-04T22:57:07.563Z,100739.22
2022-12-04T22:59:35.585Z,100731.94
2022-12-04T23:02:05.134Z,100730.34
2022-12-04T23:04:33.355Z,100724.75
2022-12-04T23:07:01.460Z,100723.97
2022-12-04T23:09:29.662Z,100727.25
2022-12-04T23:11:57.882Z,100726.72
2022-12-04T23:14:27.229Z,100723.16
2022-12-04T23:16:56.198Z,100717.84
2022-12-04T23:19:25.699Z,100717.47
2022-12-04T23:21:57.158Z,100714.78
2022-12-04T23:24:25.976Z,100718.59
2022-12-04T23:26:54.210Z,100718.78
2022-12-04T23:29:52.866Z,100712.56
2022-12-04T23:32:10.460Z,100711.31
2022-12-04T23:34:40.094Z,100707.03
2022-12-04T23:37:08.240Z,100721.16
2022-12-04T23:39:36.373Z,100719.31
2022-12-04T23:42:04.743Z,100719.44
2022-12-04T23:44:32.775Z,100722.59
2022-12-04T23:47:00.990Z,100715.97
2022-12-04T23:49:29.528Z,100718.44
2022-12-04T23:51:59.053Z,100715.22
2022-12-04T23:54:27.395Z,100718.13
2022-12-04T23:56:55.789Z,100707.38
2022-12-04T23:59:23.889Z,100710.94
